GUCY Airport Information

Runway Information
Runway 06 Length 10826 ft width 148 ft
Elevation 69 ft Threshold ft Heading 49
Runway 24 Length 10826 ft Width 148 ft
Elevation 52 ft Threshold ft Heading 229
Airport Frequencies
Type A/G Name AIR GND Frequency 658.9 MHZ
Type APP Name APP Frequency 119.7 MHZ
Type GND Name GND Frequency 129.1 MHZ
Type TWR Name TWR Frequency 118.7 MHZ
Airport Navaids
Type NDB Name Conakry Frequency 395 KHZ
Type VOR-DME Name Conakry Frequency 114900 KHZ
Type NDB Name Conakry Frequency 365 KHZ
Airport Weather Information & NOTAM
ADDS - METARS form results

(0815 UTC 27 June 2022)
Data provider http://aviationweather.gov/metar/data/
 
METAR text: GUCY 270800Z 07004KT 9999 BKN015 SCT110 27/25 Q1013 NOSIG
Conditions at: GUCY (CONAKRY/GBESSIA , GN) observed 0800 UTC 27 June 2022
Temperature: 27.0°C (81°F)
Dewpoint: 25.0°C (77°F) [RH = 89%]
Pressure (altimeter): 29.91 inches Hg (1013.0 mb)
Winds: from the ENE (70 degrees) at 5 MPH (4 knots; 2.1 m/s)
Visibility: 6 or more miles (10+ km)
Ceiling: 1500 feet AGL
Clouds: broken clouds at 1500 feet AGL
scattered clouds at 11000 feet AGL
Weather: no significant weather observed at this time